sensor_id;sensor_type;location;lat;lon;timestamp;P1;durP1;ratioP1;P2;durP2;ratioP2
2021;SDS011;1015;49.756;6.994;2022-09-17T00:01:35;5.00;;;2.60;;
2021;SDS011;1015;49.756;6.994;2022-09-17T00:04:02;2.53;;;2.33;;
2021;SDS011;1015;49.756;6.994;2022-09-17T00:06:31;3.90;;;2.47;;
2021;SDS011;1015;49.756;6.994;2022-09-17T00:08:59;5.67;;;2.27;;
2021;SDS011;1015;49.756;6.994;2022-09-17T00:11:27;2.17;;;1.97;;
2021;SDS011;1015;49.756;6.994;2022-09-17T00:13:56;5.00;;;2.37;;
2021;SDS011;1015;49.756;6.994;2022-09-17T00:16:26;2.57;;;2.03;;
2021;SDS011;1015;49.756;6.994;2022-09-17T00:18:56;2.60;;;2.00;;
2021;SDS011;1015;49.756;6.994;2022-09-17T00:21:24;2.27;;;2.07;;
2021;SDS011;1015;49.756;6.994;2022-09-17T00:23:52;4.50;;;1.93;;
2021;SDS011;1015;49.756;6.994;2022-09-17T00:26:20;2.03;;;1.83;;
2021;SDS011;1015;49.756;6.994;2022-09-17T00:28:48;2.87;;;2.03;;
2021;SDS011;1015;49.756;6.994;2022-09-17T00:31:16;2.20;;;1.97;;
2021;SDS011;1015;49.756;6.994;2022-09-17T00:33:43;4.20;;;2.00;;
2021;SDS011;1015;49.756;6.994;2022-09-17T00:36:11;3.50;;;2.20;;
2021;SDS011;1015;49.756;6.994;2022-09-17T00:38:38;5.43;;;2.30;;
2021;SDS011;1015;49.756;6.994;2022-09-17T00:41:05;4.13;;;2.47;;
2021;SDS011;1015;49.756;6.994;2022-09-17T00:43:35;5.93;;;2.17;;
2021;SDS011;1015;49.756;6.994;2022-09-17T00:46:05;5.50;;;3.10;;
2021;SDS011;1015;49.756;6.994;2022-09-17T00:48:41;4.27;;;2.90;;
2021;SDS011;1015;49.756;6.994;2022-09-17T00:51:10;3.30;;;2.90;;
2021;SDS011;1015;49.756;6.994;2022-09-17T00:53:42;3.37;;;3.00;;
2021;SDS011;1015;49.756;6.994;2022-09-17T00:56:10;3.53;;;3.03;;
2021;SDS011;1015;49.756;6.994;2022-09-17T00:58:44;3.93;;;2.90;;
2021;SDS011;1015;49.756;6.994;2022-09-17T01:01:11;6.37;;;3.70;;
2021;SDS011;1015;49.756;6.994;2022-09-17T01:03:38;6.23;;;3.03;;
2021;SDS011;1015;49.756;6.994;2022-09-17T01:06:08;5.60;;;3.33;;
2021;SDS011;1015;49.756;6.994;2022-09-17T01:08:45;6.60;;;3.30;;
2021;SDS011;1015;49.756;6.994;2022-09-17T01:11:26;4.60;;;3.57;;
2021;SDS011;1015;49.756;6.994;2022-09-17T01:14:08;4.90;;;3.90;;
2021;SDS011;1015;49.756;6.994;2022-09-17T01:16:51;7.00;;;4.40;;
2021;SDS011;1015;49.756;6.994;2022-09-17T01:19:37;6.80;;;3.80;;
2021;SDS011;1015;49.756;6.994;2022-09-17T01:22:17;5.67;;;3.97;;
2021;SDS011;1015;49.756;6.994;2022-09-17T01:30:58;5.00;;;4.40;;
2021;SDS011;1015;49.756;6.994;2022-09-17T01:33:31;5.00;;;4.03;;
2021;SDS011;1015;49.756;6.994;2022-09-17T01:39:02;5.53;;;3.87;;
2021;SDS011;1015;49.756;6.994;2022-09-17T01:41:34;10.90;;;4.40;;
2021;SDS011;1015;49.756;6.994;2022-09-17T01:44:09;9.60;;;4.50;;
2021;SDS011;1015;49.756;6.994;2022-09-17T01:46:45;5.90;;;4.33;;
2021;SDS011;1015;49.756;6.994;2022-09-17T01:49:14;7.20;;;4.50;;
2021;SDS011;1015;49.756;6.994;2022-09-17T01:51:44;8.33;;;5.17;;
2021;SDS011;1015;49.756;6.994;2022-09-17T01:54:15;4.80;;;4.10;;
2021;SDS011;1015;49.756;6.994;2022-09-17T01:56:46;6.90;;;4.60;;
2021;SDS011;1015;49.756;6.994;2022-09-17T01:59:19;7.00;;;4.93;;
2021;SDS011;1015;49.756;6.994;2022-09-17T02:01:53;11.03;;;5.00;;
2021;SDS011;1015;49.756;6.994;2022-09-17T02:04:26;6.60;;;5.33;;
2021;SDS011;1015;49.756;6.994;2022-09-17T02:06:55;6.93;;;4.60;;
2021;SDS011;1015;49.756;6.994;2022-09-17T02:09:29;9.80;;;5.40;;
2021;SDS011;1015;49.756;6.994;2022-09-17T02:12:00;7.20;;;5.40;;
2021;SDS011;1015;49.756;6.994;2022-09-17T02:14:33;6.00;;;5.00;;
2021;SDS011;1015;49.756;6.994;2022-09-17T02:17:05;5.77;;;4.67;;
2021;SDS011;1015;49.756;6.994;2022-09-17T02:19:37;7.57;;;5.17;;
2021;SDS011;1015;49.756;6.994;2022-09-17T02:22:09;6.63;;;5.57;;
2021;SDS011;1015;49.756;6.994;2022-09-17T02:24:43;8.60;;;5.50;;
2021;SDS011;1015;49.756;6.994;2022-09-17T02:27:18;8.53;;;5.43;;
2021;SDS011;1015;49.756;6.994;2022-09-17T02:29:49;6.87;;;4.70;;
2021;SDS011;1015;49.756;6.994;2022-09-17T02:32:18;6.87;;;5.10;;
2021;SDS011;1015;49.756;6.994;2022-09-17T02:34:44;7.77;;;5.10;;
2021;SDS011;1015;49.756;6.994;2022-09-17T02:37:12;9.17;;;4.33;;
2021;SDS011;1015;49.756;6.994;2022-09-17T02:39:39;6.10;;;4.43;;
2021;SDS011;1015;49.756;6.994;2022-09-17T02:42:08;7.00;;;5.00;;
2021;SDS011;1015;49.756;6.994;2022-09-17T02:44:44;8.43;;;4.77;;
2021;SDS011;1015;49.756;6.994;2022-09-17T02:47:35;9.60;;;4.83;;
2021;SDS011;1015;49.756;6.994;2022-09-17T02:53:13;8.30;;;5.20;;
2021;SDS011;1015;49.756;6.994;2022-09-17T02:55:56;10.40;;;5.40;;
2021;SDS011;1015;49.756;6.994;2022-09-17T02:58:30;9.20;;;4.73;;
2021;SDS011;1015;49.756;6.994;2022-09-17T03:01:02;7.73;;;4.60;;
2021;SDS011;1015;49.756;6.994;2022-09-17T03:03:36;7.07;;;4.60;;
2021;SDS011;1015;49.756;6.994;2022-09-17T03:06:05;5.50;;;5.00;;
2021;SDS011;1015;49.756;6.994;2022-09-17T03:08:33;5.70;;;4.90;;
2021;SDS011;1015;49.756;6.994;2022-09-17T03:11:04;8.43;;;5.03;;
2021;SDS011;1015;49.756;6.994;2022-09-17T03:13:32;5.80;;;4.93;;
2021;SDS011;1015;49.756;6.994;2022-09-17T03:16:00;11.17;;;5.27;;
2021;SDS011;1015;49.756;6.994;2022-09-17T03:18:27;6.67;;;5.23;;
2021;SDS011;1015;49.756;6.994;2022-09-17T03:20:55;8.23;;;4.90;;
2021;SDS011;1015;49.756;6.994;2022-09-17T03:23:22;6.20;;;5.37;;
2021;SDS011;1015;49.756;6.994;2022-09-17T03:25:50;9.87;;;5.73;;
2021;SDS011;1015;49.756;6.994;2022-09-17T03:28:17;6.27;;;5.00;;
2021;SDS011;1015;49.756;6.994;2022-09-17T03:30:44;12.83;;;6.00;;
2021;SDS011;1015;49.756;6.994;2022-09-17T03:33:11;12.17;;;5.77;;
2021;SDS011;1015;49.756;6.994;2022-09-17T03:35:41;6.90;;;5.10;;
2021;SDS011;1015;49.756;6.994;2022-09-17T03:38:09;6.83;;;4.93;;
2021;SDS011;1015;49.756;6.994;2022-09-17T03:40:36;7.63;;;5.43;;
2021;SDS011;1015;49.756;6.994;2022-09-17T03:43:03;7.83;;;5.30;;
2021;SDS011;1015;49.756;6.994;2022-09-17T03:45:30;10.77;;;5.70;;
2021;SDS011;1015;49.756;6.994;2022-09-17T03:47:57;7.53;;;5.20;;
2021;SDS011;1015;49.756;6.994;2022-09-17T03:50:24;11.07;;;5.77;;
2021;SDS011;1015;49.756;6.994;2022-09-17T03:52:51;7.20;;;5.73;;
2021;SDS011;1015;49.756;6.994;2022-09-17T03:55:20;8.17;;;4.80;;
2021;SDS011;1015;49.756;6.994;2022-09-17T03:57:47;8.90;;;5.43;;
2021;SDS011;1015;49.756;6.994;2022-09-17T04:00:14;13.00;;;5.43;;
2021;SDS011;1015;49.756;6.994;2022-09-17T04:02:41;10.70;;;5.17;;
2021;SDS011;1015;49.756;6.994;2022-09-17T04:05:08;10.97;;;6.10;;
2021;SDS011;1015;49.756;6.994;2022-09-17T04:07:35;8.50;;;5.10;;
2021;SDS011;1015;49.756;6.994;2022-09-17T04:10:02;7.53;;;5.23;;
2021;SDS011;1015;49.756;6.994;2022-09-17T04:12:31;7.57;;;4.97;;
2021;SDS011;1015;49.756;6.994;2022-09-17T04:14:58;8.00;;;4.77;;
2021;SDS011;1015;49.756;6.994;2022-09-17T04:17:26;10.40;;;5.70;;
2021;SDS011;1015;49.756;6.994;2022-09-17T04:19:53;7.37;;;5.40;;
2021;SDS011;1015;49.756;6.994;2022-09-17T04:22:20;7.50;;;5.73;;
2021;SDS011;1015;49.756;6.994;2022-09-17T04:24:46;7.57;;;5.13;;
2021;SDS011;1015;49.756;6.994;2022-09-17T04:27:13;12.03;;;5.47;;
2021;SDS011;1015;49.756;6.994;2022-09-17T04:29:42;8.63;;;5.10;;
2021;SDS011;1015;49.756;6.994;2022-09-17T04:32:09;9.80;;;5.50;;
2021;SDS011;1015;49.756;6.994;2022-09-17T04:34:36;9.80;;;4.97;;
2021;SDS011;1015;49.756;6.994;2022-09-17T04:37:03;7.60;;;5.50;;
2021;SDS011;1015;49.756;6.994;2022-09-17T04:39:30;7.77;;;5.17;;
2021;SDS011;1015;49.756;6.994;2022-09-17T04:41:56;6.17;;;4.60;;
2021;SDS011;1015;49.756;6.994;2022-09-17T04:44:23;6.80;;;5.47;;
2021;SDS011;1015;49.756;6.994;2022-09-17T04:46:52;9.80;;;4.90;;
2021;SDS011;1015;49.756;6.994;2022-09-17T04:49:18;7.57;;;4.80;;
2021;SDS011;1015;49.756;6.994;2022-09-17T04:51:45;6.87;;;5.33;;
2021;SDS011;1015;49.756;6.994;2022-09-17T04:54:12;8.13;;;5.87;;
2021;SDS011;1015;49.756;6.994;2022-09-17T04:56:39;8.07;;;4.60;;
2021;SDS011;1015;49.756;6.994;2022-09-17T04:59:06;7.60;;;4.70;;
2021;SDS011;1015;49.756;6.994;2022-09-17T05:01:33;6.50;;;4.73;;
2021;SDS011;1015;49.756;6.994;2022-09-17T05:04:02;7.83;;;5.17;;
2021;SDS011;1015;49.756;6.994;2022-09-17T05:06:29;19.10;;;5.93;;
2021;SDS011;1015;49.756;6.994;2022-09-17T05:08:55;9.63;;;5.77;;
2021;SDS011;1015;49.756;6.994;2022-09-17T05:11:22;10.40;;;5.13;;
2021;SDS011;1015;49.756;6.994;2022-09-17T05:13:49;7.00;;;5.20;;
2021;SDS011;1015;49.756;6.994;2022-09-17T05:16:16;8.00;;;6.10;;
2021;SDS011;1015;49.756;6.994;2022-09-17T05:18:43;6.30;;;5.10;;
2021;SDS011;1015;49.756;6.994;2022-09-17T05:21:11;5.90;;;5.20;;
2021;SDS011;1015;49.756;6.994;2022-09-17T05:23:38;8.63;;;4.90;;
2021;SDS011;1015;49.756;6.994;2022-09-17T05:26:05;14.47;;;5.27;;
2021;SDS011;1015;49.756;6.994;2022-09-17T05:28:32;10.70;;;5.60;;
2021;SDS011;1015;49.756;6.994;2022-09-17T05:30:59;11.60;;;5.70;;
2021;SDS011;1015;49.756;6.994;2022-09-17T05:33:27;9.77;;;6.00;;
2021;SDS011;1015;49.756;6.994;2022-09-17T05:35:54;8.77;;;5.57;;
2021;SDS011;1015;49.756;6.994;2022-09-17T05:38:22;8.07;;;5.37;;
2021;SDS011;1015;49.756;6.994;2022-09-17T05:40:49;12.20;;;6.67;;
2021;SDS011;1015;49.756;6.994;2022-09-17T05:43:16;8.00;;;5.70;;
2021;SDS011;1015;49.756;6.994;2022-09-17T05:45:43;10.00;;;5.40;;
2021;SDS011;1015;49.756;6.994;2022-09-17T05:48:13;13.87;;;6.10;;
2021;SDS011;1015;49.756;6.994;2022-09-17T05:50:40;10.43;;;5.80;;
2021;SDS011;1015;49.756;6.994;2022-09-17T05:53:09;11.03;;;6.07;;
2021;SDS011;1015;49.756;6.994;2022-09-17T05:55:38;9.10;;;5.67;;
2021;SDS011;1015;49.756;6.994;2022-09-17T05:58:09;7.90;;;5.40;;
2021;SDS011;1015;49.756;6.994;2022-09-17T06:00:36;8.77;;;5.53;;
2021;SDS011;1015;49.756;6.994;2022-09-17T06:03:03;11.37;;;5.53;;
2021;SDS011;1015;49.756;6.994;2022-09-17T06:05:30;8.43;;;5.60;;
2021;SDS011;1015;49.756;6.994;2022-09-17T06:07:57;8.70;;;5.40;;
2021;SDS011;1015;49.756;6.994;2022-09-17T06:10:24;12.30;;;5.53;;
2021;SDS011;1015;49.756;6.994;2022-09-17T06:12:56;9.80;;;5.60;;
2021;SDS011;1015;49.756;6.994;2022-09-17T06:15:24;8.53;;;5.43;;
2021;SDS011;1015;49.756;6.994;2022-09-17T06:17:52;11.00;;;5.53;;
2021;SDS011;1015;49.756;6.994;2022-09-17T06:20:19;6.70;;;5.10;;
2021;SDS011;1015;49.756;6.994;2022-09-17T06:22:46;10.27;;;4.73;;
2021;SDS011;1015;49.756;6.994;2022-09-17T06:25:13;7.73;;;4.90;;
2021;SDS011;1015;49.756;6.994;2022-09-17T06:27:40;9.80;;;5.17;;
2021;SDS011;1015;49.756;6.994;2022-09-17T06:30:09;9.73;;;5.37;;
2021;SDS011;1015;49.756;6.994;2022-09-17T06:32:36;5.93;;;4.60;;
2021;SDS011;1015;49.756;6.994;2022-09-17T06:35:03;8.10;;;5.17;;
2021;SDS011;1015;49.756;6.994;2022-09-17T06:37:31;6.63;;;4.00;;
2021;SDS011;1015;49.756;6.994;2022-09-17T06:40:00;8.00;;;5.17;;
2021;SDS011;1015;49.756;6.994;2022-09-17T06:42:28;5.97;;;4.77;;
2021;SDS011;1015;49.756;6.994;2022-09-17T06:44:55;8.23;;;4.37;;
2021;SDS011;1015;49.756;6.994;2022-09-17T06:47:24;7.00;;;4.73;;
2021;SDS011;1015;49.756;6.994;2022-09-17T06:49:51;4.97;;;4.00;;
2021;SDS011;1015;49.756;6.994;2022-09-17T06:52:21;5.43;;;4.07;;
2021;SDS011;1015;49.756;6.994;2022-09-17T06:54:48;6.17;;;4.57;;
2021;SDS011;1015;49.756;6.994;2022-09-17T06:57:14;8.50;;;4.60;;
2021;SDS011;1015;49.756;6.994;2022-09-17T06:59:41;6.43;;;4.73;;
2021;SDS011;1015;49.756;6.994;2022-09-17T07:02:09;4.97;;;3.70;;
2021;SDS011;1015;49.756;6.994;2022-09-17T07:04:37;9.40;;;5.00;;
2021;SDS011;1015;49.756;6.994;2022-09-17T07:07:04;4.97;;;4.27;;
2021;SDS011;1015;49.756;6.994;2022-09-17T07:09:31;5.87;;;4.00;;
2021;SDS011;1015;49.756;6.994;2022-09-17T07:11:57;7.67;;;4.27;;
2021;SDS011;1015;49.756;6.994;2022-09-17T07:14:24;6.90;;;3.70;;
2021;SDS011;1015;49.756;6.994;2022-09-17T07:16:51;4.93;;;3.67;;
2021;SDS011;1015;49.756;6.994;2022-09-17T07:19:18;6.33;;;3.67;;
2021;SDS011;1015;49.756;6.994;2022-09-17T07:21:48;4.37;;;3.20;;
2021;SDS011;1015;49.756;6.994;2022-09-17T07:24:15;3.83;;;3.13;;
2021;SDS011;1015;49.756;6.994;2022-09-17T07:26:41;5.20;;;3.43;;
2021;SDS011;1015;49.756;6.994;2022-09-17T07:29:08;5.10;;;3.47;;
2021;SDS011;1015;49.756;6.994;2022-09-17T07:31:36;8.23;;;3.50;;
2021;SDS011;1015;49.756;6.994;2022-09-17T07:34:03;7.07;;;3.30;;
2021;SDS011;1015;49.756;6.994;2022-09-17T07:36:30;5.10;;;3.20;;
2021;SDS011;1015;49.756;6.994;2022-09-17T07:38:58;3.50;;;3.10;;
2021;SDS011;1015;49.756;6.994;2022-09-17T07:41:25;6.40;;;2.80;;
2021;SDS011;1015;49.756;6.994;2022-09-17T07:43:52;4.90;;;2.73;;
2021;SDS011;1015;49.756;6.994;2022-09-17T07:46:20;3.67;;;2.33;;
2021;SDS011;1015;49.756;6.994;2022-09-17T07:48:47;4.40;;;2.40;;
2021;SDS011;1015;49.756;6.994;2022-09-17T07:51:15;5.07;;;2.87;;
2021;SDS011;1015;49.756;6.994;2022-09-17T07:53:43;3.23;;;2.40;;
2021;SDS011;1015;49.756;6.994;2022-09-17T07:56:12;7.20;;;2.37;;
2021;SDS011;1015;49.756;6.994;2022-09-17T07:58:39;3.70;;;2.37;;
2021;SDS011;1015;49.756;6.994;2022-09-17T08:01:07;5.57;;;2.70;;
2021;SDS011;1015;49.756;6.994;2022-09-17T08:03:35;4.63;;;2.40;;
2021;SDS011;1015;49.756;6.994;2022-09-17T08:06:03;5.43;;;2.30;;
2021;SDS011;1015;49.756;6.994;2022-09-17T08:08:33;3.60;;;2.10;;
2021;SDS011;1015;49.756;6.994;2022-09-17T08:11:01;3.67;;;2.37;;
2021;SDS011;1015;49.756;6.994;2022-09-17T08:13:30;3.73;;;2.53;;
2021;SDS011;1015;49.756;6.994;2022-09-17T08:15:58;9.00;;;4.10;;
2021;SDS011;1015;49.756;6.994;2022-09-17T08:18:25;5.40;;;2.63;;
2021;SDS011;1015;49.756;6.994;2022-09-17T08:20:55;3.17;;;2.27;;
2021;SDS011;1015;49.756;6.994;2022-09-17T08:23:22;3.40;;;2.63;;
2021;SDS011;1015;49.756;6.994;2022-09-17T08:25:52;2.90;;;2.40;;
2021;SDS011;1015;49.756;6.994;2022-09-17T08:28:19;4.50;;;2.67;;
2021;SDS011;1015;49.756;6.994;2022-09-17T08:30:47;6.50;;;2.67;;
2021;SDS011;1015;49.756;6.994;2022-09-17T08:33:14;3.53;;;2.17;;
2021;SDS011;1015;49.756;6.994;2022-09-17T08:35:42;3.53;;;2.47;;
2021;SDS011;1015;49.756;6.994;2022-09-17T08:38:09;5.00;;;3.10;;
2021;SDS011;1015;49.756;6.994;2022-09-17T08:40:38;7.30;;;2.47;;
2021;SDS011;1015;49.756;6.994;2022-09-17T08:43:14;4.43;;;2.00;;
2021;SDS011;1015;49.756;6.994;2022-09-17T08:45:44;6.50;;;1.93;;
2021;SDS011;1015;49.756;6.994;2022-09-17T08:48:17;3.60;;;2.10;;
2021;SDS011;1015;49.756;6.994;2022-09-17T08:50:44;2.50;;;1.80;;
2021;SDS011;1015;49.756;6.994;2022-09-17T08:53:23;4.23;;;2.10;;
2021;SDS011;1015;49.756;6.994;2022-09-17T08:55:58;7.30;;;1.90;;
2021;SDS011;1015;49.756;6.994;2022-09-17T09:01:27;3.47;;;1.83;;
2021;SDS011;1015;49.756;6.994;2022-09-17T09:07:01;3.27;;;1.60;;
2021;SDS011;1015;49.756;6.994;2022-09-17T09:09:33;1.77;;;1.33;;
2021;SDS011;1015;49.756;6.994;2022-09-17T09:12:04;2.37;;;1.70;;
2021;SDS011;1015;49.756;6.994;2022-09-17T09:14:34;5.40;;;1.47;;
2021;SDS011;1015;49.756;6.994;2022-09-17T09:17:14;3.50;;;2.03;;
2021;SDS011;1015;49.756;6.994;2022-09-17T09:19:45;2.30;;;1.40;;
2021;SDS011;1015;49.756;6.994;2022-09-17T09:22:19;4.37;;;1.57;;
2021;SDS011;1015;49.756;6.994;2022-09-17T09:25:01;3.80;;;1.20;;
2021;SDS011;1015;49.756;6.994;2022-09-17T09:27:36;2.17;;;1.60;;
2021;SDS011;1015;49.756;6.994;2022-09-17T09:30:09;4.43;;;1.80;;
2021;SDS011;1015;49.756;6.994;2022-09-17T09:32:42;2.47;;;1.70;;
2021;SDS011;1015;49.756;6.994;2022-09-17T09:35:21;3.43;;;1.70;;
2021;SDS011;1015;49.756;6.994;2022-09-17T09:37:54;3.30;;;1.90;;
2021;SDS011;1015;49.756;6.994;2022-09-17T09:40:32;2.23;;;1.70;;
2021;SDS011;1015;49.756;6.994;2022-09-17T09:43:06;3.43;;;1.80;;
2021;SDS011;1015;49.756;6.994;2022-09-17T09:45:44;3.30;;;1.73;;
2021;SDS011;1015;49.756;6.994;2022-09-17T09:48:21;6.07;;;1.80;;
2021;SDS011;1015;49.756;6.994;2022-09-17T09:51:03;3.73;;;1.70;;
2021;SDS011;1015;49.756;6.994;2022-09-17T09:53:47;3.07;;;1.53;;
2021;SDS011;1015;49.756;6.994;2022-09-17T09:56:31;2.30;;;1.40;;
2021;SDS011;1015;49.756;6.994;2022-09-17T09:59:11;3.77;;;2.17;;
2021;SDS011;1015;49.756;6.994;2022-09-17T10:01:39;4.13;;;1.90;;
2021;SDS011;1015;49.756;6.994;2022-09-17T10:04:13;4.83;;;2.17;;
2021;SDS011;1015;49.756;6.994;2022-09-17T10:06:43;3.90;;;2.30;;
2021;SDS011;1015;49.756;6.994;2022-09-17T10:09:13;3.63;;;2.40;;
2021;SDS011;1015;49.756;6.994;2022-09-17T10:11:42;4.00;;;2.20;;
2021;SDS011;1015;49.756;6.994;2022-09-17T10:14:26;3.90;;;2.73;;
2021;SDS011;1015;49.756;6.994;2022-09-17T10:17:11;5.43;;;2.90;;
2021;SDS011;1015;49.756;6.994;2022-09-17T10:19:43;3.70;;;2.00;;
2021;SDS011;1015;49.756;6.994;2022-09-17T10:25:02;4.20;;;2.90;;
2021;SDS011;1015;49.756;6.994;2022-09-17T10:27:31;4.20;;;2.83;;
2021;SDS011;1015;49.756;6.994;2022-09-17T10:30:02;4.93;;;2.77;;
2021;SDS011;1015;49.756;6.994;2022-09-17T10:32:39;4.70;;;2.00;;
2021;SDS011;1015;49.756;6.994;2022-09-17T10:35:23;4.83;;;2.33;;
2021;SDS011;1015;49.756;6.994;2022-09-17T10:37:52;2.87;;;1.97;;
2021;SDS011;1015;49.756;6.994;2022-09-17T10:40:28;2.50;;;1.60;;
2021;SDS011;1015;49.756;6.994;2022-09-17T10:43:16;3.23;;;1.60;;
2021;SDS011;1015;49.756;6.994;2022-09-17T10:45:53;2.55;;;1.80;;
2021;SDS011;1015;49.756;6.994;2022-09-17T10:48:23;2.00;;;1.90;;
2021;SDS011;1015;49.756;6.994;2022-09-17T10:50:54;4.40;;;2.37;;
2021;SDS011;1015;49.756;6.994;2022-09-17T10:53:22;3.50;;;2.07;;
2021;SDS011;1015;49.756;6.994;2022-09-17T10:55:53;3.53;;;1.83;;
2021;SDS011;1015;49.756;6.994;2022-09-17T10:58:29;3.63;;;1.67;;
2021;SDS011;1015;49.756;6.994;2022-09-17T11:01:09;5.20;;;1.90;;
2021;SDS011;1015;49.756;6.994;2022-09-17T11:07:03;5.93;;;2.43;;
2021;SDS011;1015;49.756;6.994;2022-09-17T11:09:51;3.73;;;2.10;;
2021;SDS011;1015;49.756;6.994;2022-09-17T11:12:27;2.80;;;2.00;;
2021;SDS011;1015;49.756;6.994;2022-09-17T11:15:02;3.47;;;2.70;;
2021;SDS011;1015;49.756;6.994;2022-09-17T11:17:42;5.20;;;2.80;;
2021;SDS011;1015;49.756;6.994;2022-09-17T11:20:32;4.07;;;2.20;;
2021;SDS011;1015;49.756;6.994;2022-09-17T11:23:16;5.43;;;2.70;;
2021;SDS011;1015;49.756;6.994;2022-09-17T11:25:55;5.00;;;2.40;;
2021;SDS011;1015;49.756;6.994;2022-09-17T11:28:31;3.30;;;2.50;;
2021;SDS011;1015;49.756;6.994;2022-09-17T11:31:13;6.87;;;2.77;;
2021;SDS011;1015;49.756;6.994;2022-09-17T11:33:57;4.37;;;3.33;;
2021;SDS011;1015;49.756;6.994;2022-09-17T11:36:37;4.83;;;3.00;;
2021;SDS011;1015;49.756;6.994;2022-09-17T11:39:12;8.07;;;3.03;;
2021;SDS011;1015;49.756;6.994;2022-09-17T11:41:44;6.27;;;2.70;;
2021;SDS011;1015;49.756;6.994;2022-09-17T11:44:16;3.00;;;2.53;;
2021;SDS011;1015;49.756;6.994;2022-09-17T11:46:50;5.13;;;3.03;;
2021;SDS011;1015;49.756;6.994;2022-09-17T11:49:23;3.90;;;2.47;;
2021;SDS011;1015;49.756;6.994;2022-09-17T11:51:57;4.00;;;2.53;;
2021;SDS011;1015;49.756;6.994;2022-09-17T11:54:28;4.37;;;2.60;;
2021;SDS011;1015;49.756;6.994;2022-09-17T11:57:03;5.63;;;3.13;;
2021;SDS011;1015;49.756;6.994;2022-09-17T11:59:34;4.80;;;2.87;;
2021;SDS011;1015;49.756;6.994;2022-09-17T12:02:09;4.90;;;3.03;;
2021;SDS011;1015;49.756;6.994;2022-09-17T12:04:45;3.83;;;2.20;;
2021;SDS011;1015;49.756;6.994;2022-09-17T12:07:27;4.20;;;2.70;;
2021;SDS011;1015;49.756;6.994;2022-09-17T12:10:03;4.20;;;1.70;;
2021;SDS011;1015;49.756;6.994;2022-09-17T12:12:45;2.77;;;2.00;;
2021;SDS011;1015;49.756;6.994;2022-09-17T12:15:19;5.83;;;2.10;;
2021;SDS011;1015;49.756;6.994;2022-09-17T12:17:51;3.20;;;1.60;;
2021;SDS011;1015;49.756;6.994;2022-09-17T12:20:23;2.93;;;1.70;;
2021;SDS011;1015;49.756;6.994;2022-09-17T12:22:55;3.20;;;1.73;;
2021;SDS011;1015;49.756;6.994;2022-09-17T12:25:25;2.00;;;1.63;;
2021;SDS011;1015;49.756;6.994;2022-09-17T12:27:58;2.63;;;1.40;;
2021;SDS011;1015;49.756;6.994;2022-09-17T12:30:32;3.10;;;2.00;;
2021;SDS011;1015;49.756;6.994;2022-09-17T12:33:09;4.00;;;1.83;;
2021;SDS011;1015;49.756;6.994;2022-09-17T12:35:51;3.17;;;1.97;;
2021;SDS011;1015;49.756;6.994;2022-09-17T12:38:47;2.60;;;2.13;;
2021;SDS011;1015;49.756;6.994;2022-09-17T12:41:29;3.93;;;2.30;;
2021;SDS011;1015;49.756;6.994;2022-09-17T12:44:09;4.17;;;2.43;;
2021;SDS011;1015;49.756;6.994;2022-09-17T12:46:51;7.67;;;2.20;;
2021;SDS011;1015;49.756;6.994;2022-09-17T12:49:35;3.57;;;2.30;;
2021;SDS011;1015;49.756;6.994;2022-09-17T12:52:13;2.20;;;1.90;;
2021;SDS011;1015;49.756;6.994;2022-09-17T12:54:57;2.43;;;2.23;;
2021;SDS011;1015;49.756;6.994;2022-09-17T12:57:44;3.13;;;1.80;;
2021;SDS011;1015;49.756;6.994;2022-09-17T13:00:19;4.47;;;1.83;;
2021;SDS011;1015;49.756;6.994;2022-09-17T13:02:49;3.23;;;1.93;;
2021;SDS011;1015;49.756;6.994;2022-09-17T13:05:43;2.93;;;2.23;;
2021;SDS011;1015;49.756;6.994;2022-09-17T13:14:29;3.60;;;1.57;;
2021;SDS011;1015;49.756;6.994;2022-09-17T13:17:06;3.80;;;1.70;;
2021;SDS011;1015;49.756;6.994;2022-09-17T13:19:38;4.57;;;1.57;;
2021;SDS011;1015;49.756;6.994;2022-09-17T13:22:12;3.30;;;2.13;;
2021;SDS011;1015;49.756;6.994;2022-09-17T13:24:42;4.17;;;1.80;;
2021;SDS011;1015;49.756;6.994;2022-09-17T13:27:18;3.03;;;2.40;;
2021;SDS011;1015;49.756;6.994;2022-09-17T13:29:57;2.30;;;1.93;;
2021;SDS011;1015;49.756;6.994;2022-09-17T13:38:16;3.83;;;2.37;;
2021;SDS011;1015;49.756;6.994;2022-09-17T13:40:45;5.17;;;2.50;;
2021;SDS011;1015;49.756;6.994;2022-09-17T13:43:13;3.50;;;2.70;;
2021;SDS011;1015;49.756;6.994;2022-09-17T13:48:36;3.23;;;2.60;;
2021;SDS011;1015;49.756;6.994;2022-09-17T13:54:10;3.80;;;1.90;;
2021;SDS011;1015;49.756;6.994;2022-09-17T13:56:39;3.60;;;1.90;;
2021;SDS011;1015;49.756;6.994;2022-09-17T13:59:10;3.83;;;1.80;;
2021;SDS011;1015;49.756;6.994;2022-09-17T14:01:57;5.83;;;1.97;;
2021;SDS011;1015;49.756;6.994;2022-09-17T14:04:31;3.20;;;1.57;;
2021;SDS011;1015;49.756;6.994;2022-09-17T14:07:32;1.83;;;1.73;;
2021;SDS011;1015;49.756;6.994;2022-09-17T14:10:00;2.10;;;1.90;;
2021;SDS011;1015;49.756;6.994;2022-09-17T14:12:56;2.20;;;1.73;;
2021;SDS011;1015;49.756;6.994;2022-09-17T14:15:33;4.33;;;2.40;;
2021;SDS011;1015;49.756;6.994;2022-09-17T14:18:33;3.17;;;2.10;;
2021;SDS011;1015;49.756;6.994;2022-09-17T14:21:31;3.80;;;2.20;;
2021;SDS011;1015;49.756;6.994;2022-09-17T14:24:01;2.50;;;1.90;;
2021;SDS011;1015;49.756;6.994;2022-09-17T14:26:42;3.37;;;2.33;;
2021;SDS011;1015;49.756;6.994;2022-09-17T14:29:32;2.70;;;1.93;;
2021;SDS011;1015;49.756;6.994;2022-09-17T14:32:12;2.60;;;2.17;;
2021;SDS011;1015;49.756;6.994;2022-09-17T14:34:44;2.47;;;2.27;;
2021;SDS011;1015;49.756;6.994;2022-09-17T14:37:12;3.00;;;2.30;;
2021;SDS011;1015;49.756;6.994;2022-09-17T14:39:43;3.97;;;2.13;;
2021;SDS011;1015;49.756;6.994;2022-09-17T14:42:14;4.33;;;2.67;;
2021;SDS011;1015;49.756;6.994;2022-09-17T14:44:47;3.07;;;2.60;;
2021;SDS011;1015;49.756;6.994;2022-09-17T14:47:20;4.67;;;3.10;;
2021;SDS011;1015;49.756;6.994;2022-09-17T14:49:47;7.23;;;3.17;;
2021;SDS011;1015;49.756;6.994;2022-09-17T14:52:25;4.67;;;2.83;;
2021;SDS011;1015;49.756;6.994;2022-09-17T14:55:13;3.40;;;3.07;;
2021;SDS011;1015;49.756;6.994;2022-09-17T14:57:42;4.30;;;2.60;;
2021;SDS011;1015;49.756;6.994;2022-09-17T15:00:21;3.67;;;2.60;;
2021;SDS011;1015;49.756;6.994;2022-09-17T15:02:50;3.67;;;2.43;;
2021;SDS011;1015;49.756;6.994;2022-09-17T15:05:23;2.20;;;2.00;;
2021;SDS011;1015;49.756;6.994;2022-09-17T15:08:03;2.00;;;1.90;;
2021;SDS011;1015;49.756;6.994;2022-09-17T15:10:47;2.03;;;1.93;;
2021;SDS011;1015;49.756;6.994;2022-09-17T15:13:17;2.13;;;1.60;;
2021;SDS011;1015;49.756;6.994;2022-09-17T15:15:57;2.60;;;2.10;;
2021;SDS011;1015;49.756;6.994;2022-09-17T15:18:34;2.30;;;1.90;;
2021;SDS011;1015;49.756;6.994;2022-09-17T15:21:06;3.17;;;1.50;;
2021;SDS011;1015;49.756;6.994;2022-09-17T15:23:42;1.50;;;1.40;;
2021;SDS011;1015;49.756;6.994;2022-09-17T15:26:11;1.43;;;1.33;;
2021;SDS011;1015;49.756;6.994;2022-09-17T15:28:41;1.63;;;1.53;;
2021;SDS011;1015;49.756;6.994;2022-09-17T15:31:13;3.10;;;1.70;;
2021;SDS011;1015;49.756;6.994;2022-09-17T15:33:43;1.50;;;1.30;;
2021;SDS011;1015;49.756;6.994;2022-09-17T15:36:14;2.70;;;1.30;;
2021;SDS011;1015;49.756;6.994;2022-09-17T15:38:48;1.50;;;1.27;;
2021;SDS011;1015;49.756;6.994;2022-09-17T15:41:30;1.10;;;1.00;;
2021;SDS011;1015;49.756;6.994;2022-09-17T15:44:12;1.23;;;1.13;;
2021;SDS011;1015;49.756;6.994;2022-09-17T15:46:43;1.57;;;1.20;;
2021;SDS011;1015;49.756;6.994;2022-09-17T15:49:29;1.53;;;1.00;;
2021;SDS011;1015;49.756;6.994;2022-09-17T15:54:52;3.87;;;1.40;;
2021;SDS011;1015;49.756;6.994;2022-09-17T15:57:20;1.87;;;1.00;;
2021;SDS011;1015;49.756;6.994;2022-09-17T15:59:49;4.47;;;1.10;;
2021;SDS011;1015;49.756;6.994;2022-09-17T16:02:23;1.10;;;1.00;;
2021;SDS011;1015;49.756;6.994;2022-09-17T16:04:57;1.03;;;0.90;;
2021;SDS011;1015;49.756;6.994;2022-09-17T16:08:04;2.43;;;1.20;;
2021;SDS011;1015;49.756;6.994;2022-09-17T16:10:46;1.73;;;1.10;;
2021;SDS011;1015;49.756;6.994;2022-09-17T16:13:15;2.00;;;1.30;;
2021;SDS011;1015;49.756;6.994;2022-09-17T16:15:41;1.77;;;1.13;;
2021;SDS011;1015;49.756;6.994;2022-09-17T16:18:12;1.50;;;1.40;;
2021;SDS011;1015;49.756;6.994;2022-09-17T16:20:40;1.53;;;1.40;;
2021;SDS011;1015;49.756;6.994;2022-09-17T16:23:07;1.67;;;1.07;;
2021;SDS011;1015;49.756;6.994;2022-09-17T16:25:34;1.00;;;0.90;;
2021;SDS011;1015;49.756;6.994;2022-09-17T16:28:05;2.33;;;1.27;;
2021;SDS011;1015;49.756;6.994;2022-09-17T16:30:41;1.10;;;1.00;;